createdAt,value
2017-07-18T00:00:55.333Z,90.00
2017-07-18T00:01:55.290Z,90.00
2017-07-18T00:02:55.308Z,90.00
2017-07-18T00:03:55.357Z,67.50
2017-07-18T00:04:55.320Z,67.50
2017-07-18T00:05:55.406Z,45.00
2017-07-18T00:06:55.404Z,22.50
2017-07-18T00:07:55.353Z,0.00
2017-07-18T00:08:55.345Z,22.50
2017-07-18T00:09:55.313Z,45.00
2017-07-18T00:10:55.421Z,22.50
2017-07-18T00:11:55.324Z,22.50
2017-07-18T00:12:55.385Z,67.50
2017-07-18T00:13:55.419Z,67.50
2017-07-18T00:14:55.340Z,45.00
2017-07-18T00:15:55.293Z,45.00
2017-07-18T00:16:55.342Z,45.00
2017-07-18T00:17:55.316Z,67.50
2017-07-18T00:18:55.341Z,67.50
2017-07-18T00:19:55.342Z,67.50
2017-07-18T00:20:55.343Z,45.00
2017-07-18T00:21:55.346Z,45.00
2017-07-18T00:22:55.349Z,45.00
2017-07-18T00:23:55.351Z,22.50
2017-07-18T00:24:55.358Z,22.50
2017-07-18T00:25:55.379Z,45.00
2017-07-18T00:26:55.403Z,45.00
2017-07-18T00:27:55.396Z,45.00
2017-07-18T00:28:55.399Z,45.00
2017-07-18T00:29:55.333Z,90.00
2017-07-18T00:30:55.325Z,112.50
2017-07-18T00:31:55.360Z,90.00
2017-07-18T00:32:55.366Z,90.00
2017-07-18T00:33:55.444Z,45.00
2017-07-18T00:34:55.394Z,45.00
2017-07-18T00:35:55.420Z,45.00
2017-07-18T00:36:55.335Z,45.00
2017-07-18T00:37:55.360Z,45.00
2017-07-18T00:38:55.374Z,112.50
2017-07-18T00:39:55.430Z,67.50
2017-07-18T00:40:55.373Z,45.00
2017-07-18T00:41:55.366Z,45.00
2017-07-18T00:42:55.427Z,45.00
2017-07-18T00:43:55.367Z,45.00
2017-07-18T00:44:55.393Z,45.00
2017-07-18T00:45:55.434Z,45.00
2017-07-18T00:46:55.345Z,67.50
2017-07-18T00:47:55.342Z,45.00
2017-07-18T00:48:55.347Z,247.50
2017-07-18T00:49:55.439Z,270.00
2017-07-18T00:50:55.339Z,270.00
2017-07-18T00:51:55.370Z,315.00
2017-07-18T00:52:55.379Z,292.50
2017-07-18T00:53:55.433Z,337.50
2017-07-18T00:54:55.409Z,45.00
2017-07-18T00:55:55.379Z,0.00
2017-07-18T00:56:55.436Z,22.50
2017-07-18T00:57:55.475Z,45.00
2017-07-18T00:58:55.351Z,45.00
2017-07-18T00:59:55.402Z,45.00
2017-07-18T01:00:55.384Z,45.00
2017-07-18T01:01:55.400Z,45.00
2017-07-18T01:02:55.413Z,22.50
2017-07-18T01:03:55.386Z,22.50
2017-07-18T01:04:55.401Z,45.00
2017-07-18T01:05:55.426Z,45.00
2017-07-18T01:06:55.343Z,67.50
2017-07-18T01:07:55.374Z,45.00
2017-07-18T01:08:55.406Z,22.50
2017-07-18T01:09:55.405Z,22.50
2017-07-18T01:10:55.413Z,157.50
2017-07-18T01:11:55.346Z,67.50
2017-07-18T01:12:55.410Z,67.50
2017-07-18T01:13:55.411Z,45.00
2017-07-18T01:14:55.410Z,45.00
2017-07-18T01:15:55.349Z,45.00
2017-07-18T01:16:55.362Z,22.50
2017-07-18T01:17:55.381Z,202.50
2017-07-18T01:18:55.350Z,45.00
2017-07-18T01:19:55.349Z,22.50
2017-07-18T01:20:55.414Z,22.50
2017-07-18T01:21:55.354Z,22.50
2017-07-18T01:22:55.416Z,22.50
2017-07-18T01:23:55.378Z,45.00
2017-07-18T01:24:55.392Z,45.00
2017-07-18T01:25:55.394Z,22.50
2017-07-18T01:26:55.372Z,22.50
2017-07-18T01:27:55.397Z,22.50
2017-07-18T01:28:55.396Z,22.50
2017-07-18T01:29:55.385Z,22.50
2017-07-18T01:30:55.393Z,22.50
2017-07-18T01:31:55.451Z,22.50
2017-07-18T01:32:55.389Z,22.50
2017-07-18T01:33:55.425Z,22.50
2017-07-18T01:34:55.420Z,22.50
2017-07-18T01:35:55.422Z,292.50
2017-07-18T01:36:55.427Z,112.50
2017-07-18T01:37:55.388Z,22.50
2017-07-18T01:38:55.389Z,22.50
2017-07-18T01:39:55.423Z,45.00
2017-07-18T01:40:55.365Z,22.50
2017-07-18T01:41:55.361Z,22.50
2017-07-18T01:42:55.395Z,22.50
2017-07-18T01:43:55.392Z,22.50
2017-07-18T01:44:55.441Z,45.00
2017-07-18T01:45:55.439Z,67.50
2017-07-18T01:46:55.445Z,67.50
2017-07-18T01:47:55.414Z,90.00
2017-07-18T01:48:55.407Z,67.50
2017-07-18T01:49:55.430Z,45.00
2017-07-18T01:50:55.445Z,45.00
2017-07-18T01:51:55.451Z,45.00
2017-07-18T01:52:55.414Z,67.50
2017-07-18T01:53:55.467Z,45.00
2017-07-18T01:54:55.386Z,45.00
2017-07-18T01:55:55.438Z,45.00
2017-07-18T01:56:55.414Z,45.00
2017-07-18T01:57:55.381Z,45.00
2017-07-18T01:58:55.385Z,45.00
2017-07-18T01:59:55.506Z,45.00
2017-07-18T02:00:55.416Z,45.00
2017-07-18T02:01:55.455Z,67.50
2017-07-18T02:02:55.382Z,22.50
2017-07-18T02:03:55.442Z,225.00
2017-07-18T02:04:55.409Z,67.50
2017-07-18T02:05:55.437Z,22.50
2017-07-18T02:06:55.477Z,22.50
2017-07-18T02:07:55.427Z,22.50
2017-07-18T02:08:55.419Z,22.50
2017-07-18T02:09:55.416Z,22.50
2017-07-18T02:10:55.460Z,45.00
2017-07-18T02:11:55.481Z,22.50
2017-07-18T02:12:55.423Z,22.50
2017-07-18T02:13:55.492Z,22.50
2017-07-18T02:14:55.441Z,22.50
2017-07-18T02:15:55.444Z,22.50
2017-07-18T02:16:55.439Z,0.00
2017-07-18T02:17:55.413Z,45.00
2017-07-18T02:18:55.423Z,67.50
2017-07-18T02:19:55.415Z,67.50
2017-07-18T02:20:55.410Z,67.50
2017-07-18T02:21:55.419Z,45.00
2017-07-18T02:22:55.388Z,67.50
2017-07-18T02:23:55.448Z,45.00
2017-07-18T02:24:55.450Z,45.00
2017-07-18T02:25:55.392Z,67.50
2017-07-18T02:26:55.402Z,45.00
2017-07-18T02:27:55.449Z,45.00
2017-07-18T02:28:55.425Z,67.50
2017-07-18T02:29:55.452Z,45.00
2017-07-18T02:30:55.423Z,67.50
2017-07-18T02:31:55.393Z,67.50
2017-07-18T02:32:55.394Z,67.50
2017-07-18T02:33:55.392Z,67.50
2017-07-18T02:34:55.400Z,45.00
2017-07-18T02:35:55.345Z,45.00
2017-07-18T02:36:55.401Z,45.00
2017-07-18T02:37:55.399Z,45.00
2017-07-18T02:38:55.455Z,45.00
2017-07-18T02:39:55.386Z,45.00
2017-07-18T02:40:55.341Z,45.00
2017-07-18T02:41:55.385Z,45.00
2017-07-18T02:42:55.389Z,67.50
2017-07-18T02:43:55.423Z,45.00
2017-07-18T02:44:55.401Z,67.50
2017-07-18T02:45:55.401Z,90.00
2017-07-18T02:46:55.463Z,67.50
2017-07-18T02:47:55.400Z,45.00
2017-07-18T02:48:55.488Z,45.00
2017-07-18T02:49:55.404Z,67.50
2017-07-18T02:50:55.431Z,67.50
2017-07-18T02:51:55.466Z,67.50
2017-07-18T02:52:55.432Z,45.00
2017-07-18T02:53:55.430Z,22.50
2017-07-18T02:54:55.385Z,67.50
2017-07-18T02:55:55.434Z,45.00
2017-07-18T02:56:55.427Z,22.50
2017-07-18T02:57:55.479Z,22.50
2017-07-18T02:58:55.378Z,22.50
2017-07-18T02:59:55.382Z,22.50
2017-07-18T03:00:55.440Z,22.50
2017-07-18T03:01:55.392Z,22.50
2017-07-18T03:02:55.415Z,22.50
2017-07-18T03:03:55.389Z,45.00
2017-07-18T03:04:55.418Z,67.50
2017-07-18T03:05:55.436Z,22.50
2017-07-18T03:06:55.447Z,45.00
2017-07-18T03:07:55.411Z,45.00
2017-07-18T03:08:55.441Z,45.00
2017-07-18T03:09:55.413Z,22.50
2017-07-18T03:10:55.477Z,22.50
2017-07-18T03:11:55.415Z,45.00
2017-07-18T03:12:55.478Z,45.00
2017-07-18T03:13:55.472Z,112.50
2017-07-18T03:14:55.502Z,22.50
2017-07-18T03:15:55.415Z,22.50
2017-07-18T03:16:55.420Z,22.50
2017-07-18T03:17:55.420Z,45.00
2017-07-18T03:18:55.475Z,45.00
2017-07-18T03:19:55.445Z,45.00
2017-07-18T03:20:55.420Z,45.00
2017-07-18T03:21:55.417Z,45.00
2017-07-18T03:22:55.423Z,45.00
2017-07-18T03:23:55.448Z,45.00
2017-07-18T03:24:55.506Z,45.00
2017-07-18T03:25:55.495Z,67.50
2017-07-18T03:26:55.465Z,67.50
2017-07-18T03:27:55.530Z,45.00
2017-07-18T03:28:55.524Z,67.50
2017-07-18T03:29:55.531Z,45.00
2017-07-18T03:30:55.490Z,45.00
2017-07-18T03:31:55.534Z,45.00
2017-07-18T03:32:55.473Z,45.00
2017-07-18T03:33:55.533Z,45.00
2017-07-18T03:34:55.490Z,67.50
2017-07-18T03:35:55.430Z,90.00
2017-07-18T03:36:55.433Z,90.00
2017-07-18T03:37:55.494Z,90.00
2017-07-18T03:38:55.432Z,90.00
2017-07-18T03:39:55.456Z,45.00
2017-07-18T03:40:55.501Z,45.00
2017-07-18T03:41:55.500Z,45.00
2017-07-18T03:42:55.492Z,45.00
2017-07-18T03:43:55.437Z,45.00
2017-07-18T03:44:55.513Z,45.00
2017-07-18T03:45:55.437Z,45.00
2017-07-18T03:46:55.533Z,45.00
2017-07-18T03:47:55.445Z,22.50
2017-07-18T03:48:55.504Z,22.50
2017-07-18T03:49:55.515Z,22.50
2017-07-18T03:50:55.471Z,22.50
2017-07-18T03:51:55.443Z,45.00
2017-07-18T03:52:55.540Z,45.00
2017-07-18T03:53:55.484Z,45.00
2017-07-18T03:54:55.454Z,45.00
2017-07-18T03:55:55.376Z,67.50
2017-07-18T03:56:55.383Z,45.00
2017-07-18T03:57:55.380Z,45.00
2017-07-18T03:58:55.462Z,45.00
2017-07-18T03:59:55.445Z,45.00
2017-07-18T04:00:55.460Z,22.50
2017-07-18T04:01:55.458Z,45.00
2017-07-18T04:02:55.445Z,45.00
2017-07-18T04:03:55.447Z,45.00
2017-07-18T04:04:55.444Z,45.00
2017-07-18T04:05:55.534Z,45.00
2017-07-18T04:06:55.520Z,45.00
2017-07-18T04:07:55.506Z,45.00
2017-07-18T04:08:55.479Z,45.00
2017-07-18T04:09:55.515Z,45.00
2017-07-18T04:10:55.516Z,45.00
2017-07-18T04:11:55.542Z,45.00
2017-07-18T04:12:55.540Z,45.00
2017-07-18T04:13:55.453Z,67.50
2017-07-18T04:14:55.453Z,67.50
2017-07-18T04:15:55.450Z,45.00
2017-07-18T04:16:55.518Z,45.00
2017-07-18T04:17:55.602Z,45.00
2017-07-18T04:18:55.485Z,67.50
2017-07-18T04:19:55.522Z,45.00
2017-07-18T04:20:55.487Z,45.00
2017-07-18T04:21:55.481Z,22.50
2017-07-18T04:22:55.481Z,45.00
2017-07-18T04:23:55.469Z,45.00
2017-07-18T04:24:55.475Z,45.00
2017-07-18T04:25:55.479Z,45.00
2017-07-18T04:26:55.412Z,45.00
2017-07-18T04:27:55.411Z,67.50
2017-07-18T04:28:55.414Z,90.00
2017-07-18T04:29:55.459Z,45.00
2017-07-18T04:30:55.479Z,225.00
2017-07-18T04:31:55.437Z,225.00
2017-07-18T04:32:55.463Z,337.50
2017-07-18T04:33:55.434Z,45.00
2017-07-18T04:34:55.497Z,22.50
2017-07-18T04:35:55.456Z,22.50
2017-07-18T04:36:55.487Z,22.50
2017-07-18T04:37:55.492Z,45.00
2017-07-18T04:38:55.460Z,22.50
2017-07-18T04:39:55.488Z,22.50
2017-07-18T04:40:55.522Z,22.50
2017-07-18T04:41:55.530Z,112.50
2017-07-18T04:42:55.465Z,67.50
2017-07-18T04:43:55.526Z,67.50
2017-07-18T04:44:55.463Z,22.50
2017-07-18T04:45:55.479Z,45.00
2017-07-18T04:46:55.540Z,45.00
2017-07-18T04:47:55.536Z,45.00
2017-07-18T04:48:55.536Z,45.00
2017-07-18T04:49:55.475Z,22.50
2017-07-18T04:50:55.483Z,45.00
2017-07-18T04:51:55.542Z,45.00
2017-07-18T04:52:55.602Z,67.50
2017-07-18T04:53:55.480Z,67.50
2017-07-18T04:54:55.572Z,45.00
2017-07-18T04:55:55.507Z,45.00
2017-07-18T04:56:55.480Z,45.00
2017-07-18T04:57:55.541Z,45.00
2017-07-18T04:58:55.508Z,45.00
2017-07-18T04:59:55.519Z,45.00
2017-07-18T05:00:55.519Z,45.00
2017-07-18T05:01:55.569Z,45.00
2017-07-18T05:02:55.555Z,45.00
2017-07-18T05:03:55.548Z,67.50
2017-07-18T05:04:55.566Z,67.50
2017-07-18T05:05:55.569Z,67.50
2017-07-18T05:06:55.491Z,45.00
2017-07-18T05:07:55.557Z,67.50
2017-07-18T05:08:55.505Z,45.00
2017-07-18T05:09:55.481Z,45.00
2017-07-18T05:10:55.591Z,45.00
2017-07-18T05:11:55.581Z,45.00
2017-07-18T05:12:55.490Z,67.50
2017-07-18T05:13:55.574Z,67.50
2017-07-18T05:14:55.488Z,90.00
2017-07-18T05:15:55.542Z,90.00
2017-07-18T05:16:55.495Z,67.50
2017-07-18T05:17:55.497Z,67.50
2017-07-18T05:18:55.495Z,45.00
2017-07-18T05:19:55.581Z,45.00
2017-07-18T05:20:55.531Z,22.50
2017-07-18T05:21:55.581Z,45.00
2017-07-18T05:22:55.590Z,45.00
2017-07-18T05:23:55.568Z,45.00
2017-07-18T05:24:55.589Z,45.00
2017-07-18T05:25:55.484Z,45.00
2017-07-18T05:26:55.655Z,45.00
2017-07-18T05:27:55.517Z,112.50
2017-07-18T05:28:55.518Z,157.50
2017-07-18T05:29:55.556Z,90.00
2017-07-18T05:30:55.486Z,292.50
2017-07-18T05:31:55.515Z,180.00
2017-07-18T05:32:55.555Z,45.00
2017-07-18T05:33:55.519Z,45.00
2017-07-18T05:34:55.488Z,22.50
2017-07-18T05:35:55.565Z,22.50
2017-07-18T05:36:55.536Z,45.00
2017-07-18T05:37:55.534Z,45.00
2017-07-18T05:38:55.548Z,45.00
2017-07-18T05:39:55.540Z,45.00
2017-07-18T05:40:55.555Z,67.50
2017-07-18T05:41:55.604Z,67.50
2017-07-18T05:42:55.508Z,67.50
2017-07-18T05:43:55.540Z,45.00
2017-07-18T05:44:55.513Z,45.00
2017-07-18T05:45:55.524Z,45.00
2017-07-18T05:46:55.542Z,90.00
2017-07-18T05:47:55.541Z,22.50
2017-07-18T05:48:55.563Z,90.00
2017-07-18T05:49:55.599Z,22.50
2017-07-18T05:50:55.602Z,67.50
2017-07-18T05:51:55.512Z,135.00
2017-07-18T05:52:55.544Z,157.50
2017-07-18T05:53:55.511Z,225.00
2017-07-18T05:54:55.566Z,112.50
2017-07-18T05:55:55.520Z,67.50
2017-07-18T05:56:55.574Z,112.50
2017-07-18T05:57:55.546Z,247.50
2017-07-18T05:58:55.548Z,157.50
2017-07-18T05:59:55.536Z,202.50
2017-07-18T06:00:55.603Z,337.50
2017-07-18T06:01:55.522Z,337.50
2017-07-18T06:02:55.541Z,45.00
2017-07-18T06:03:55.543Z,22.50
2017-07-18T06:04:55.591Z,157.50
2017-07-18T06:05:55.524Z,202.50
2017-07-18T06:06:55.480Z,247.50
2017-07-18T06:07:55.514Z,225.00
2017-07-18T06:08:55.498Z,112.50
2017-07-18T06:09:55.418Z,180.00
2017-07-18T06:10:55.501Z,180.00
2017-07-18T06:11:55.508Z,202.50
2017-07-18T06:12:55.514Z,157.50
2017-07-18T06:13:55.509Z,315.00
2017-07-18T06:14:55.421Z,225.00
2017-07-18T06:15:55.591Z,225.00
2017-07-18T06:16:55.594Z,157.50
2017-07-18T06:17:55.533Z,157.50
2017-07-18T06:18:55.594Z,180.00
2017-07-18T06:19:55.711Z,225.00
2017-07-18T06:20:55.560Z,315.00
2017-07-18T06:21:55.561Z,90.00
2017-07-18T06:22:55.619Z,135.00
2017-07-18T06:23:55.616Z,225.00
2017-07-18T06:24:55.535Z,67.50
2017-07-18T06:25:55.561Z,67.50
2017-07-18T06:26:55.528Z,270.00
2017-07-18T06:27:55.615Z,225.00
2017-07-18T06:28:55.547Z,247.50
2017-07-18T06:29:55.584Z,247.50
2017-07-18T06:30:55.532Z,180.00
2017-07-18T06:31:55.622Z,315.00
2017-07-18T06:32:55.570Z,292.50
2017-07-18T06:33:55.568Z,270.00
2017-07-18T06:34:55.535Z,315.00
2017-07-18T06:35:55.551Z,225.00
2017-07-18T06:36:55.557Z,157.50
2017-07-18T06:37:55.502Z,270.00
2017-07-18T06:38:55.599Z,225.00
2017-07-18T06:39:55.557Z,292.50
2017-07-18T06:40:55.563Z,247.50
2017-07-18T06:41:55.602Z,315.00
2017-07-18T06:42:55.509Z,225.00
2017-07-18T06:43:55.557Z,315.00
2017-07-18T06:44:55.516Z,180.00
2017-07-18T06:45:55.598Z,157.50
2017-07-18T06:46:55.537Z,225.00
2017-07-18T06:47:55.597Z,112.50
2017-07-18T06:48:55.568Z,90.00
2017-07-18T06:49:55.530Z,225.00
2017-07-18T06:50:55.568Z,135.00
2017-07-18T06:51:55.600Z,67.50
2017-07-18T06:52:55.566Z,157.50
2017-07-18T06:53:55.546Z,157.50
2017-07-18T06:54:55.569Z,90.00
2017-07-18T06:55:55.546Z,202.50
2017-07-18T06:56:55.569Z,180.00
2017-07-18T06:57:55.560Z,180.00
2017-07-18T06:58:55.578Z,247.50
2017-07-18T06:59:55.545Z,157.50
2017-07-18T07:00:55.612Z,247.50
2017-07-18T07:01:55.583Z,225.00
2017-07-18T07:02:55.620Z,247.50
2017-07-18T07:03:55.526Z,270.00
2017-07-18T07:04:55.570Z,225.00
2017-07-18T07:05:55.576Z,247.50
2017-07-18T07:06:55.571Z,180.00
2017-07-18T07:07:55.529Z,90.00
2017-07-18T07:08:55.551Z,157.50
2017-07-18T07:09:55.571Z,202.50
2017-07-18T07:10:55.587Z,337.50
2017-07-18T07:11:55.572Z,315.00
2017-07-18T07:12:55.573Z,292.50
2017-07-18T07:13:55.553Z,270.00
2017-07-18T07:14:55.701Z,180.00
2017-07-18T07:15:55.590Z,247.50
2017-07-18T07:16:55.570Z,202.50
2017-07-18T07:17:55.622Z,225.00
2017-07-18T07:18:55.653Z,270.00
2017-07-18T07:19:55.557Z,180.00
2017-07-18T07:20:55.623Z,202.50
2017-07-18T07:21:55.590Z,225.00
2017-07-18T07:22:55.618Z,202.50
2017-07-18T07:23:55.582Z,180.00
2017-07-18T07:24:55.605Z,270.00
2017-07-18T07:25:55.542Z,180.00
2017-07-18T07:26:55.596Z,90.00
2017-07-18T07:27:55.536Z,270.00
2017-07-18T07:28:55.569Z,180.00
2017-07-18T07:29:55.532Z,180.00
2017-07-18T07:30:55.591Z,157.50
2017-07-18T07:31:55.568Z,225.00
2017-07-18T07:32:55.586Z,135.00
2017-07-18T07:33:55.570Z,67.50
2017-07-18T07:34:55.521Z,135.00
2017-07-18T07:35:55.587Z,135.00
2017-07-18T07:36:55.598Z,135.00
2017-07-18T07:37:55.565Z,112.50
2017-07-18T07:38:55.613Z,202.50
2017-07-18T07:39:55.550Z,247.50
2017-07-18T07:40:55.597Z,247.50
2017-07-18T07:41:55.635Z,135.00
2017-07-18T07:42:55.542Z,315.00
2017-07-18T07:43:55.549Z,180.00
2017-07-18T07:44:55.573Z,135.00
2017-07-18T07:45:55.630Z,292.50
2017-07-18T07:46:55.611Z,315.00
2017-07-18T07:47:55.580Z,45.00
2017-07-18T07:48:55.603Z,225.00
2017-07-18T07:49:55.668Z,180.00
2017-07-18T07:50:55.654Z,90.00
2017-07-18T07:51:55.668Z,67.50
2017-07-18T07:52:55.667Z,112.50
2017-07-18T07:53:55.612Z,90.00
2017-07-18T07:54:55.669Z,112.50
2017-07-18T07:55:55.579Z,180.00
2017-07-18T07:56:55.620Z,180.00
2017-07-18T07:57:55.607Z,292.50
2017-07-18T07:58:55.585Z,247.50
2017-07-18T07:59:55.583Z,90.00
2017-07-18T08:00:55.682Z,157.50
2017-07-18T08:01:55.659Z,202.50
2017-07-18T08:02:55.610Z,225.00
2017-07-18T08:03:55.637Z,270.00
2017-07-18T08:04:55.616Z,157.50
2017-07-18T08:05:55.615Z,90.00
2017-07-18T08:06:55.655Z,67.50
2017-07-18T08:07:55.614Z,135.00
2017-07-18T08:08:55.651Z,180.00
2017-07-18T08:09:55.618Z,90.00
2017-07-18T08:10:55.592Z,90.00
2017-07-18T08:11:55.606Z,112.50
2017-07-18T08:12:55.685Z,202.50
2017-07-18T08:13:55.681Z,270.00
2017-07-18T08:14:55.685Z,202.50
2017-07-18T08:15:55.667Z,112.50
2017-07-18T08:16:55.647Z,180.00
2017-07-18T08:17:55.581Z,202.50
2017-07-18T08:18:55.604Z,135.00
2017-07-18T08:19:55.645Z,90.00
2017-07-18T08:20:55.648Z,112.50
2017-07-18T08:21:55.584Z,90.00
2017-07-18T08:22:55.583Z,135.00
2017-07-18T08:23:55.653Z,135.00
2017-07-18T08:24:55.631Z,180.00
2017-07-18T08:25:55.614Z,135.00
2017-07-18T08:26:55.692Z,90.00
2017-07-18T08:27:55.695Z,90.00
2017-07-18T08:28:55.663Z,202.50
2017-07-18T08:29:55.651Z,90.00
2017-07-18T08:30:55.636Z,157.50
2017-07-18T08:31:55.609Z,157.50
2017-07-18T08:32:55.606Z,202.50
2017-07-18T08:33:55.692Z,112.50
2017-07-18T08:34:55.663Z,157.50
2017-07-18T08:35:55.699Z,135.00
2017-07-18T08:36:55.625Z,135.00
2017-07-18T08:37:55.696Z,225.00
2017-07-18T08:38:55.626Z,180.00
2017-07-18T08:39:55.672Z,180.00
2017-07-18T08:40:55.938Z,112.50
2017-07-18T08:41:55.610Z,112.50
2017-07-18T08:42:55.631Z,135.00
2017-07-18T08:43:55.609Z,90.00
2017-07-18T08:44:55.608Z,112.50
2017-07-18T08:45:55.795Z,225.00
2017-07-18T08:46:55.607Z,157.50
2017-07-18T08:47:55.669Z,112.50
2017-07-18T08:48:55.643Z,112.50
2017-07-18T08:49:55.663Z,112.50
2017-07-18T08:50:55.697Z,112.50
2017-07-18T08:51:55.618Z,112.50
2017-07-18T08:52:55.706Z,90.00
2017-07-18T08:53:55.646Z,180.00
2017-07-18T08:54:55.661Z,112.50
2017-07-18T08:55:55.631Z,135.00
2017-07-18T08:56:55.651Z,112.50
2017-07-18T08:57:55.647Z,135.00
2017-07-18T08:58:55.650Z,135.00
2017-07-18T08:59:55.654Z,90.00
2017-07-18T09:00:55.621Z,112.50
2017-07-18T09:01:55.622Z,90.00
2017-07-18T09:02:55.703Z,90.00
2017-07-18T09:03:55.618Z,90.00
2017-07-18T09:04:55.603Z,135.00
2017-07-18T09:05:55.555Z,202.50
2017-07-18T09:06:55.516Z,180.00
2017-07-18T09:07:55.561Z,135.00
2017-07-18T09:08:55.506Z,112.50
2017-07-18T09:09:55.573Z,135.00
2017-07-18T09:10:55.567Z,180.00
2017-07-18T09:11:55.555Z,135.00
2017-07-18T09:12:55.560Z,292.50
2017-07-18T09:13:55.646Z,225.00
2017-07-18T09:14:55.624Z,270.00
2017-07-18T09:15:55.581Z,202.50
2017-07-18T09:16:55.599Z,247.50
2017-07-18T09:17:55.625Z,135.00
2017-07-18T09:18:55.651Z,180.00
2017-07-18T09:19:55.655Z,135.00
2017-07-18T09:20:55.631Z,202.50
2017-07-18T09:21:55.650Z,202.50
2017-07-18T09:22:55.626Z,180.00
2017-07-18T09:23:55.694Z,247.50
2017-07-18T09:24:55.693Z,225.00
2017-07-18T09:25:55.725Z,112.50
2017-07-18T09:26:55.658Z,225.00
2017-07-18T09:27:55.630Z,157.50
2017-07-18T09:28:55.705Z,135.00
2017-07-18T09:29:55.690Z,157.50
2017-07-18T09:30:55.662Z,112.50
2017-07-18T09:31:55.707Z,135.00
2017-07-18T09:32:55.633Z,157.50
2017-07-18T09:33:55.657Z,135.00
2017-07-18T09:34:55.726Z,135.00
2017-07-18T09:35:55.670Z,202.50
2017-07-18T09:36:55.664Z,67.50
2017-07-18T09:37:55.635Z,180.00
2017-07-18T09:38:55.671Z,112.50
2017-07-18T09:39:55.637Z,157.50
2017-07-18T09:40:55.699Z,157.50
2017-07-18T09:41:55.698Z,157.50
2017-07-18T09:42:55.675Z,247.50
2017-07-18T09:43:55.608Z,180.00
2017-07-18T09:44:55.666Z,157.50
2017-07-18T09:45:55.664Z,157.50
2017-07-18T09:46:55.658Z,202.50
2017-07-18T09:47:55.647Z,202.50
2017-07-18T09:48:55.616Z,135.00
2017-07-18T09:49:55.615Z,225.00
2017-07-18T09:50:55.651Z,112.50
2017-07-18T09:51:55.673Z,270.00
2017-07-18T09:52:55.643Z,202.50
2017-07-18T09:53:55.661Z,135.00
2017-07-18T09:54:55.667Z,135.00
2017-07-18T09:55:55.712Z,90.00
2017-07-18T09:56:55.646Z,135.00
2017-07-18T09:57:55.627Z,90.00
2017-07-18T09:58:55.616Z,135.00
2017-07-18T09:59:55.716Z,157.50
2017-07-18T10:00:55.625Z,180.00
2017-07-18T10:01:55.648Z,135.00
2017-07-18T10:02:55.648Z,157.50
2017-07-18T10:03:55.737Z,112.50
2017-07-18T10:04:55.693Z,202.50
2017-07-18T10:05:55.709Z,157.50
2017-07-18T10:06:55.685Z,112.50
2017-07-18T10:07:55.748Z,112.50
2017-07-18T10:08:55.682Z,135.00
2017-07-18T10:09:55.730Z,90.00
2017-07-18T10:10:55.688Z,112.50
2017-07-18T10:11:55.684Z,90.00
2017-07-18T10:12:55.743Z,90.00
2017-07-18T10:13:55.751Z,90.00
2017-07-18T10:14:55.722Z,90.00
2017-07-18T10:15:55.742Z,225.00
2017-07-18T10:16:55.748Z,180.00
2017-07-18T10:17:55.728Z,135.00
2017-07-18T10:18:55.748Z,90.00
2017-07-18T10:19:55.726Z,112.50
2017-07-18T10:20:55.721Z,90.00
2017-07-18T10:21:55.696Z,112.50
2017-07-18T10:22:55.729Z,112.50
2017-07-18T10:23:55.662Z,90.00
2017-07-18T10:24:55.655Z,112.50
2017-07-18T10:25:55.687Z,157.50
2017-07-18T10:26:55.663Z,112.50
2017-07-18T10:27:55.712Z,112.50
2017-07-18T10:28:55.730Z,180.00
2017-07-18T10:29:55.690Z,112.50
2017-07-18T10:30:55.724Z,180.00
2017-07-18T10:31:55.722Z,202.50
2017-07-18T10:32:55.725Z,247.50
2017-07-18T10:33:55.662Z,157.50
2017-07-18T10:34:55.666Z,202.50
2017-07-18T10:35:55.679Z,157.50
2017-07-18T10:36:55.668Z,270.00
2017-07-18T10:37:55.659Z,112.50
2017-07-18T10:38:55.727Z,90.00
2017-07-18T10:39:55.732Z,135.00
2017-07-18T10:40:55.672Z,112.50
2017-07-18T10:41:55.695Z,112.50
2017-07-18T10:42:55.700Z,180.00
2017-07-18T10:43:55.733Z,112.50
2017-07-18T10:44:55.729Z,157.50
2017-07-18T10:45:55.736Z,157.50
2017-07-18T10:46:55.732Z,157.50
2017-07-18T10:47:55.732Z,135.00
2017-07-18T10:48:55.751Z,135.00
2017-07-18T10:49:55.687Z,225.00
2017-07-18T10:50:55.741Z,180.00
2017-07-18T10:51:55.744Z,90.00
2017-07-18T10:52:55.686Z,270.00
2017-07-18T10:53:55.688Z,180.00
2017-07-18T10:54:55.755Z,90.00
2017-07-18T10:55:55.686Z,135.00
2017-07-18T10:56:55.772Z,180.00
2017-07-18T10:57:55.720Z,225.00
2017-07-18T10:58:55.747Z,180.00
2017-07-18T10:59:55.690Z,135.00
2017-07-18T11:00:55.754Z,247.50
2017-07-18T11:01:55.780Z,247.50
2017-07-18T11:02:55.750Z,135.00
2017-07-18T11:03:55.712Z,202.50
2017-07-18T11:04:55.741Z,135.00
2017-07-18T11:05:55.747Z,157.50
2017-07-18T11:06:55.690Z,157.50
2017-07-18T11:07:55.695Z,180.00
2017-07-18T11:08:55.717Z,112.50
2017-07-18T11:09:55.779Z,90.00
2017-07-18T11:10:55.692Z,180.00
2017-07-18T11:11:55.719Z,112.50
2017-07-18T11:12:55.697Z,157.50
2017-07-18T11:13:55.729Z,180.00
2017-07-18T11:14:55.680Z,112.50
2017-07-18T11:15:55.682Z,225.00
2017-07-18T11:16:55.711Z,202.50
2017-07-18T11:17:55.711Z,225.00
2017-07-18T11:18:55.695Z,202.50
2017-07-18T11:19:55.750Z,270.00
2017-07-18T11:20:55.691Z,202.50
2017-07-18T11:21:55.751Z,180.00
2017-07-18T11:22:55.716Z,67.50
2017-07-18T11:23:55.756Z,247.50
2017-07-18T11:24:55.693Z,270.00
2017-07-18T11:25:55.697Z,247.50
2017-07-18T11:26:55.762Z,225.00
2017-07-18T11:27:55.697Z,270.00
2017-07-18T11:28:55.763Z,157.50
2017-07-18T11:29:55.726Z,135.00
2017-07-18T11:30:55.707Z,112.50
2017-07-18T11:31:55.667Z,157.50
2017-07-18T11:32:55.724Z,157.50
2017-07-18T11:33:55.699Z,112.50
2017-07-18T11:34:55.723Z,157.50
2017-07-18T11:35:55.766Z,135.00
2017-07-18T11:36:55.723Z,135.00
2017-07-18T11:37:55.704Z,135.00
2017-07-18T11:38:55.714Z,157.50
2017-07-18T11:39:55.779Z,90.00
2017-07-18T11:40:55.685Z,67.50
2017-07-18T11:41:55.717Z,157.50
2017-07-18T11:42:55.688Z,90.00
2017-07-18T11:43:55.687Z,112.50
2017-07-18T11:44:55.784Z,157.50
2017-07-18T11:45:55.765Z,90.00
2017-07-18T11:46:55.708Z,135.00
2017-07-18T11:47:55.771Z,135.00
2017-07-18T11:48:55.775Z,157.50
2017-07-18T11:49:55.714Z,270.00
2017-07-18T11:50:55.770Z,157.50
2017-07-18T11:51:55.749Z,202.50
2017-07-18T11:52:55.808Z,157.50
2017-07-18T11:53:55.796Z,112.50
2017-07-18T11:54:55.744Z,180.00
2017-07-18T11:55:55.784Z,90.00
2017-07-18T11:56:55.789Z,112.50
2017-07-18T11:57:55.785Z,112.50
2017-07-18T11:58:55.782Z,135.00
2017-07-18T11:59:55.808Z,157.50
2017-07-18T12:00:55.783Z,202.50
2017-07-18T12:01:55.722Z,157.50
2017-07-18T12:02:55.750Z,135.00
2017-07-18T12:03:55.748Z,135.00
2017-07-18T12:04:55.757Z,157.50
2017-07-18T12:05:55.787Z,157.50
2017-07-18T12:06:55.724Z,157.50
2017-07-18T12:07:55.727Z,292.50
2017-07-18T12:08:55.728Z,315.00
2017-07-18T12:09:55.762Z,292.50
2017-07-18T12:10:55.755Z,292.50
2017-07-18T12:11:55.822Z,202.50
2017-07-18T12:12:55.842Z,225.00
2017-07-18T12:13:55.779Z,247.50
2017-07-18T12:14:55.786Z,225.00
2017-07-18T12:15:55.789Z,135.00
2017-07-18T12:16:55.788Z,202.50
2017-07-18T12:17:55.754Z,247.50
2017-07-18T12:18:55.750Z,135.00
2017-07-18T12:19:55.751Z,112.50
2017-07-18T12:20:55.789Z,157.50
2017-07-18T12:21:55.730Z,112.50
2017-07-18T12:22:55.816Z,180.00
2017-07-18T12:23:55.793Z,225.00
2017-07-18T12:24:55.788Z,112.50
2017-07-18T12:25:55.743Z,292.50
2017-07-18T12:26:55.787Z,135.00
2017-07-18T12:27:55.821Z,180.00
2017-07-18T12:28:55.799Z,135.00
2017-07-18T12:29:55.744Z,135.00
2017-07-18T12:30:55.768Z,180.00
2017-07-18T12:31:55.770Z,225.00
2017-07-18T12:32:55.768Z,180.00
2017-07-18T12:33:55.833Z,112.50
2017-07-18T12:34:55.756Z,135.00
2017-07-18T12:35:55.760Z,157.50
2017-07-18T12:36:55.757Z,157.50
2017-07-18T12:37:55.748Z,157.50
2017-07-18T12:38:55.807Z,90.00
2017-07-18T12:39:55.708Z,112.50
2017-07-18T12:40:55.742Z,112.50